createdAt,value
2019-02-10T00:00:43.394Z,0.81
2019-02-10T00:03:17.160Z,0.86
2019-02-10T00:05:50.597Z,0.89
2019-02-10T00:08:24.005Z,0.85
2019-02-10T00:10:58.545Z,0.78
2019-02-10T00:13:33.777Z,0.72
2019-02-10T00:16:10.358Z,0.71
2019-02-10T00:18:44.519Z,0.74
2019-02-10T00:21:17.962Z,0.72
2019-02-10T00:23:51.644Z,0.75
2019-02-10T00:26:35.114Z,0.72
2019-02-10T00:29:08.450Z,0.69
2019-02-10T00:31:42.258Z,0.70
2019-02-10T00:34:15.824Z,0.70
2019-02-10T00:36:49.489Z,0.68
2019-02-10T00:39:22.924Z,0.68
2019-02-10T00:41:56.187Z,0.69
2019-02-10T00:44:29.749Z,0.74
2019-02-10T00:47:03.401Z,0.79
2019-02-10T00:49:36.987Z,0.72
2019-02-10T00:52:10.485Z,0.73
2019-02-10T00:54:44.059Z,0.69
2019-02-10T00:57:17.590Z,0.73
2019-02-10T00:59:50.996Z,0.78
2019-02-10T01:02:24.511Z,0.78
2019-02-10T01:04:57.931Z,0.80
2019-02-10T01:07:31.396Z,0.83
2019-02-10T01:10:05.051Z,0.86
2019-02-10T01:12:38.574Z,0.87
2019-02-10T01:15:12.016Z,0.88
2019-02-10T01:17:45.918Z,0.78
2019-02-10T01:20:19.328Z,0.75
2019-02-10T01:22:52.918Z,0.77
2019-02-10T01:25:36.817Z,0.73
2019-02-10T01:28:10.252Z,0.72
2019-02-10T01:30:55.614Z,0.69
2019-02-10T01:33:33.070Z,0.64
2019-02-10T01:36:06.392Z,0.59
2019-02-10T01:38:40.380Z,0.56
2019-02-10T01:41:14.011Z,0.56
2019-02-10T01:43:47.466Z,0.54
2019-02-10T01:46:21.104Z,0.57
2019-02-10T01:48:54.252Z,0.55
2019-02-10T01:51:26.604Z,0.60
2019-02-10T01:53:59.986Z,0.65
2019-02-10T01:56:33.790Z,0.56
2019-02-10T01:59:07.494Z,0.60
2019-02-10T02:01:41.106Z,0.63
2019-02-10T02:04:15.552Z,0.60
2019-02-10T02:06:59.284Z,0.59
2019-02-10T02:09:44.823Z,0.60
2019-02-10T02:12:31.181Z,0.61
2019-02-10T02:15:16.599Z,0.53
2019-02-10T02:17:59.100Z,0.55
2019-02-10T02:20:32.603Z,0.53
2019-02-10T02:23:06.022Z,0.52
2019-02-10T02:25:40.046Z,0.53
2019-02-10T02:28:14.108Z,0.49
2019-02-10T02:30:48.772Z,0.29
2019-02-10T02:33:22.176Z,0.48
2019-02-10T02:35:55.930Z,0.52
2019-02-10T02:38:28.762Z,0.42
2019-02-10T02:41:02.751Z,0.42
2019-02-10T02:43:37.748Z,0.32
2019-02-10T02:46:11.432Z,0.33
2019-02-10T02:48:45.136Z,0.29
2019-02-10T02:51:18.554Z,0.28
2019-02-10T02:54:04.582Z,0.27
2019-02-10T02:56:46.033Z,0.30
2019-02-10T02:59:22.470Z,0.25
2019-02-10T03:01:56.023Z,0.13
2019-02-10T03:04:29.881Z,0.18
2019-02-10T03:07:03.645Z,0.20
2019-02-10T03:09:37.016Z,0.18
2019-02-10T03:12:10.799Z,0.17
2019-02-10T03:14:43.730Z,0.02
2019-02-10T03:17:16.192Z,-0.05
2019-02-10T03:19:49.504Z,-0.02
2019-02-10T03:22:23.255Z,-0.03
2019-02-10T03:24:56.823Z,0.01
2019-02-10T03:27:30.457Z,0.03
2019-02-10T03:30:04.064Z,0.10
2019-02-10T03:32:38.181Z,0.16
2019-02-10T03:35:12.331Z,0.21
2019-02-10T03:37:46.697Z,0.28
2019-02-10T03:40:20.504Z,0.18
2019-02-10T03:42:53.926Z,0.15
2019-02-10T03:45:28.541Z,0.03
2019-02-10T03:48:02.202Z,-0.08
2019-02-10T03:50:48.100Z,-0.02
2019-02-10T03:53:34.253Z,-0.02
2019-02-10T03:56:17.565Z,-0.03
2019-02-10T03:59:00.384Z,-0.16
2019-02-10T04:01:34.064Z,-0.20
2019-02-10T04:04:07.958Z,-0.14
2019-02-10T04:06:48.236Z,-0.08
2019-02-10T04:09:22.044Z,-0.07
2019-02-10T04:11:55.425Z,-0.07
2019-02-10T04:14:29.358Z,-0.03
2019-02-10T04:17:05.148Z,0.07
2019-02-10T04:19:38.915Z,0.16
2019-02-10T04:22:12.838Z,0.11
2019-02-10T04:24:46.314Z,-0.03
2019-02-10T04:27:19.367Z,-0.07
2019-02-10T04:29:52.829Z,0.13
2019-02-10T04:32:26.447Z,0.05
2019-02-10T04:35:01.380Z,0.13
2019-02-10T04:37:34.976Z,0.22
2019-02-10T04:40:10.785Z,0.23
2019-02-10T04:42:44.444Z,0.29
2019-02-10T04:45:30.392Z,0.40
2019-02-10T04:48:04.861Z,0.42
2019-02-10T04:50:38.286Z,0.50
2019-02-10T04:53:12.041Z,0.46
2019-02-10T04:55:44.982Z,0.55
2019-02-10T04:58:18.480Z,0.10
2019-02-10T05:00:52.273Z,0.19
2019-02-10T05:03:25.749Z,0.24
2019-02-10T05:05:59.357Z,0.24
2019-02-10T05:08:33.192Z,0.34
2019-02-10T05:11:06.805Z,0.35
2019-02-10T05:13:43.602Z,0.33
2019-02-10T05:16:17.009Z,0.43
2019-02-10T05:18:50.485Z,0.41
2019-02-10T05:21:24.215Z,0.43
2019-02-10T05:24:03.424Z,0.41
2019-02-10T05:26:33.180Z,0.46
2019-02-10T05:29:06.802Z,0.36
2019-02-10T05:31:40.377Z,0.32
2019-02-10T05:34:31.665Z,0.32
2019-02-10T05:37:17.911Z,0.27
2019-02-10T05:40:02.243Z,0.28
2019-02-10T05:42:45.061Z,0.13
2019-02-10T05:45:18.657Z,0.07
2019-02-10T05:47:52.154Z,0.04
2019-02-10T05:50:30.366Z,0.05
2019-02-10T05:53:04.054Z,0.13
2019-02-10T05:55:39.371Z,0.12
2019-02-10T05:58:13.071Z,0.07
2019-02-10T06:00:46.063Z,0.15
2019-02-10T06:03:31.799Z,0.27
2019-02-10T06:06:17.915Z,0.43
2019-02-10T06:09:04.289Z,0.57
2019-02-10T06:11:51.643Z,0.77
2019-02-10T06:14:28.344Z,0.98
2019-02-10T06:17:03.198Z,1.15
2019-02-10T06:19:38.105Z,1.24
2019-02-10T06:22:14.893Z,1.44
2019-02-10T06:24:48.413Z,1.52
2019-02-10T06:27:21.859Z,1.71
2019-02-10T06:29:55.621Z,1.85
2019-02-10T06:32:29.901Z,1.95
2019-02-10T06:35:04.048Z,2.12
2019-02-10T06:37:39.287Z,2.27
2019-02-10T06:40:14.728Z,2.46
2019-02-10T06:42:48.177Z,2.68
2019-02-10T06:45:34.763Z,2.88
2019-02-10T06:48:20.053Z,3.12
2019-02-10T06:50:56.676Z,3.31
2019-02-10T06:53:30.049Z,3.53
2019-02-10T06:56:03.796Z,3.77
2019-02-10T06:58:37.413Z,4.07
2019-02-10T07:01:32.133Z,4.35
2019-02-10T07:04:32.363Z,4.39
2019-02-10T07:07:06.699Z,5.08
2019-02-10T07:09:41.516Z,5.67
2019-02-10T07:12:48.994Z,6.10
2019-02-10T07:15:57.959Z,6.49
2019-02-10T07:19:06.287Z,7.01
2019-02-10T07:21:42.677Z,7.46
2019-02-10T07:24:55.875Z,7.85
2019-02-10T07:27:32.147Z,8.14
2019-02-10T07:31:08.833Z,8.69
2019-02-10T07:34:14.393Z,8.96
2019-02-10T07:37:18.233Z,9.18
2019-02-10T07:40:18.884Z,9.34
2019-02-10T07:43:24.070Z,9.50
2019-02-10T07:46:30.706Z,9.70
2019-02-10T07:49:16.222Z,9.95
2019-02-10T07:52:01.932Z,10.04
2019-02-10T07:55:02.008Z,10.13
2019-02-10T07:58:16.555Z,10.01
2019-02-10T08:01:33.157Z,10.02
2019-02-10T08:04:55.026Z,9.71
2019-02-10T08:08:03.318Z,9.93
2019-02-10T08:11:45.724Z,9.67
2019-02-10T08:14:58.708Z,10.14
2019-02-10T08:18:08.754Z,10.79
2019-02-10T08:21:18.587Z,11.13
2019-02-10T08:24:35.015Z,11.42
2019-02-10T08:27:38.070Z,11.05
2019-02-10T08:30:48.316Z,11.36
2019-02-10T08:33:40.893Z,11.93
2019-02-10T08:36:41.872Z,12.13
2019-02-10T08:39:57.429Z,11.92
2019-02-10T08:43:25.840Z,11.85
2019-02-10T08:46:52.662Z,12.04
2019-02-10T08:49:38.946Z,12.32
2019-02-10T08:52:58.457Z,12.33
2019-02-10T08:55:32.269Z,12.26
2019-02-10T08:58:08.780Z,12.56
2019-02-10T09:00:42.945Z,12.56
2019-02-10T09:03:19.667Z,11.68
2019-02-10T09:05:54.864Z,12.40
2019-02-10T09:08:29.755Z,12.94
2019-02-10T09:11:03.555Z,12.69
2019-02-10T09:13:37.413Z,12.77
2019-02-10T09:16:11.746Z,13.26
2019-02-10T09:18:46.559Z,13.44
2019-02-10T09:21:20.466Z,13.78
2019-02-10T09:23:53.758Z,14.05
2019-02-10T09:26:27.549Z,14.22
2019-02-10T09:29:02.136Z,14.37
2019-02-10T09:31:47.876Z,14.48
2019-02-10T09:34:30.666Z,14.42
2019-02-10T09:37:03.401Z,14.01
2019-02-10T09:39:37.729Z,14.39
2019-02-10T09:42:10.911Z,14.51
2019-02-10T09:44:45.935Z,14.60
2019-02-10T09:47:19.708Z,14.63
2019-02-10T09:49:53.533Z,14.58
2019-02-10T09:52:27.682Z,14.94
2019-02-10T09:55:01.381Z,15.14
2019-02-10T09:57:35.075Z,15.19
2019-02-10T10:00:10.281Z,14.89
2019-02-10T10:02:44.815Z,15.11
2019-02-10T10:05:18.660Z,15.13
2019-02-10T10:07:52.797Z,14.64
2019-02-10T10:10:27.488Z,14.85
2019-02-10T10:13:02.055Z,14.52
2019-02-10T10:15:36.326Z,14.78
2019-02-10T10:18:11.100Z,14.86
2019-02-10T10:20:44.258Z,15.12
2019-02-10T10:23:16.642Z,15.29
2019-02-10T10:25:50.718Z,15.33
2019-02-10T10:28:24.816Z,15.69
2019-02-10T10:31:10.758Z,15.82
2019-02-10T10:33:56.470Z,16.18
2019-02-10T10:36:29.847Z,16.32
2019-02-10T10:39:11.298Z,16.34
2019-02-10T10:41:45.977Z,16.50
2019-02-10T10:44:19.958Z,16.39
2019-02-10T10:46:53.376Z,16.34
2019-02-10T10:49:26.493Z,15.42
2019-02-10T10:51:58.738Z,15.88
2019-02-10T10:54:32.349Z,16.11
2019-02-10T10:57:12.379Z,16.43
2019-02-10T10:59:47.295Z,16.47
2019-02-10T11:02:22.368Z,15.96
2019-02-10T11:04:57.364Z,16.12
2019-02-10T11:07:32.180Z,16.18
2019-02-10T11:10:06.503Z,15.82
2019-02-10T11:12:40.362Z,15.66
2019-02-10T11:15:14.044Z,15.74
2019-02-10T11:17:47.982Z,15.80
2019-02-10T11:20:33.938Z,15.77
2019-02-10T11:23:07.370Z,15.78
2019-02-10T11:25:42.846Z,15.95
2019-02-10T11:28:16.937Z,15.90
2019-02-10T11:30:50.130Z,15.87
2019-02-10T11:33:22.834Z,15.96
2019-02-10T11:35:56.120Z,16.17
2019-02-10T11:38:29.925Z,15.78
2019-02-10T11:41:06.414Z,15.51
2019-02-10T11:43:40.100Z,16.09
2019-02-10T11:46:13.642Z,16.36
2019-02-10T11:48:58.844Z,16.48
2019-02-10T11:51:44.740Z,16.29
2019-02-10T11:54:30.314Z,15.97
2019-02-10T12:00:15.218Z,15.72
2019-02-10T12:02:49.202Z,16.11
2019-02-10T12:05:22.988Z,16.14
2019-02-10T12:07:56.938Z,16.11
2019-02-10T12:10:30.469Z,16.56
2019-02-10T12:13:04.932Z,16.72
2019-02-10T12:15:47.725Z,16.95
2019-02-10T12:18:22.040Z,16.39
2019-02-10T12:20:56.004Z,16.02
2019-02-10T12:23:29.418Z,15.53
2019-02-10T12:26:03.174Z,15.73
2019-02-10T12:28:36.534Z,15.71
2019-02-10T12:31:15.776Z,15.64
2019-02-10T12:33:49.100Z,15.42
2019-02-10T12:36:24.004Z,15.71
2019-02-10T12:38:57.681Z,15.77
2019-02-10T12:41:31.465Z,15.24
2019-02-10T12:44:05.366Z,15.83
2019-02-10T12:46:40.503Z,16.22
2019-02-10T12:49:26.673Z,16.11
2019-02-10T12:54:58.482Z,16.38
2019-02-10T12:57:32.142Z,16.88
2019-02-10T13:00:10.120Z,17.06
2019-02-10T13:02:45.272Z,16.82
2019-02-10T13:05:19.093Z,17.02
2019-02-10T13:07:54.664Z,17.12
2019-02-10T13:10:29.042Z,17.09
2019-02-10T13:13:03.185Z,17.09
2019-02-10T13:15:36.958Z,17.03
2019-02-10T13:18:10.942Z,17.15
2019-02-10T13:20:44.958Z,17.23
2019-02-10T13:23:18.454Z,17.38
2019-02-10T13:25:52.549Z,17.35
2019-02-10T13:28:27.776Z,16.96
2019-02-10T13:31:01.839Z,16.95
2019-02-10T13:33:36.305Z,17.25
2019-02-10T13:36:20.276Z,17.39
2019-02-10T13:38:58.630Z,17.30
2019-02-10T13:41:40.064Z,17.23
2019-02-10T13:44:14.674Z,17.08
2019-02-10T13:46:49.375Z,17.15
2019-02-10T13:49:32.462Z,17.03
2019-02-10T13:52:06.390Z,16.98
2019-02-10T13:54:49.406Z,16.74
2019-02-10T13:57:24.160Z,16.74
2019-02-10T13:59:58.893Z,16.51
2019-02-10T14:02:33.629Z,16.43
2019-02-10T14:05:07.303Z,16.29
2019-02-10T14:07:41.985Z,16.07
2019-02-10T14:10:24.994Z,15.90
2019-02-10T14:12:55.255Z,15.91
2019-02-10T14:15:30.344Z,15.81
2019-02-10T14:18:03.833Z,15.74
2019-02-10T14:20:37.859Z,15.67
2019-02-10T14:23:11.445Z,15.48
2019-02-10T14:25:45.299Z,15.70
2019-02-10T14:28:19.644Z,15.69
2019-02-10T14:30:53.442Z,15.83
2019-02-10T14:33:27.085Z,15.57
2019-02-10T14:36:01.124Z,15.58
2019-02-10T14:38:38.874Z,15.39
2019-02-10T14:41:12.607Z,15.30
2019-02-10T14:43:47.034Z,15.21
2019-02-10T14:46:21.135Z,15.29
2019-02-10T14:48:54.780Z,15.23
2019-02-10T14:51:28.484Z,15.08
2019-02-10T14:54:04.419Z,14.95
2019-02-10T14:56:51.023Z,14.83
2019-02-10T14:59:37.202Z,14.76
2019-02-10T15:02:20.910Z,14.68
2019-02-10T15:04:56.430Z,14.49
2019-02-10T15:07:30.017Z,14.36
2019-02-10T15:10:04.001Z,14.11
2019-02-10T15:12:37.844Z,13.94
2019-02-10T15:15:12.192Z,13.75
2019-02-10T15:17:47.053Z,13.61
2019-02-10T15:20:21.116Z,13.49
2019-02-10T15:22:54.797Z,13.31
2019-02-10T15:25:28.766Z,13.17
2019-02-10T15:28:04.148Z,13.00
2019-02-10T15:30:38.709Z,12.86
2019-02-10T15:33:13.367Z,12.83
2019-02-10T15:35:48.711Z,12.61
2019-02-10T15:38:25.523Z,12.43
2019-02-10T15:40:59.812Z,12.25
2019-02-10T15:43:33.649Z,12.07
2019-02-10T15:46:07.782Z,11.94
2019-02-10T15:48:51.843Z,11.61
2019-02-10T15:51:37.214Z,11.57
2019-02-10T15:54:10.876Z,11.48
2019-02-10T15:56:45.834Z,11.32
2019-02-10T15:59:19.769Z,11.16
2019-02-10T16:01:53.046Z,11.05
2019-02-10T16:04:27.524Z,10.94
2019-02-10T16:07:01.414Z,10.86
2019-02-10T16:09:37.366Z,10.84
2019-02-10T16:12:11.193Z,10.68
2019-02-10T16:14:45.429Z,10.58
2019-02-10T16:17:19.293Z,10.49
2019-02-10T16:19:53.315Z,10.30
2019-02-10T16:22:27.571Z,10.19
2019-02-10T16:25:03.249Z,10.10
2019-02-10T16:27:38.139Z,9.95
2019-02-10T16:30:14.005Z,9.89
2019-02-10T16:32:50.133Z,9.79
2019-02-10T16:35:23.533Z,9.66
2019-02-10T16:37:58.205Z,9.55
2019-02-10T16:40:32.363Z,9.51
2019-02-10T16:43:06.403Z,9.47
2019-02-10T16:45:40.705Z,9.42
2019-02-10T16:48:14.943Z,9.36
2019-02-10T16:50:56.405Z,9.32
2019-02-10T16:53:32.165Z,9.32
2019-02-10T16:56:07.534Z,9.30
2019-02-10T16:58:42.615Z,9.22
2019-02-10T17:01:17.195Z,9.20
2019-02-10T17:04:04.216Z,9.19
2019-02-10T17:06:39.606Z,8.99
2019-02-10T17:09:19.845Z,9.05
2019-02-10T17:11:54.725Z,9.01
2019-02-10T17:14:29.303Z,9.06
2019-02-10T17:17:03.407Z,8.88
2019-02-10T17:19:38.854Z,8.99
2019-02-10T17:22:13.239Z,8.97
2019-02-10T17:24:48.731Z,8.81
2019-02-10T17:27:26.684Z,8.88
2019-02-10T17:30:00.899Z,8.86
2019-02-10T17:32:37.145Z,8.70
2019-02-10T17:35:12.015Z,8.71
2019-02-10T17:37:48.052Z,8.63
2019-02-10T17:40:26.356Z,8.53
2019-02-10T17:43:02.948Z,8.56
2019-02-10T17:45:36.839Z,8.33
2019-02-10T17:48:11.573Z,8.44
2019-02-10T17:50:46.689Z,8.38
2019-02-10T17:53:21.814Z,8.33
2019-02-10T17:55:55.731Z,8.31
2019-02-10T17:58:32.177Z,8.27
2019-02-10T18:01:06.270Z,8.24
2019-02-10T18:03:40.276Z,8.20
2019-02-10T18:06:15.113Z,8.16
2019-02-10T18:08:48.542Z,8.18
2019-02-10T18:14:50.782Z,8.05
2019-02-10T18:17:46.719Z,8.07
2019-02-10T18:20:40.741Z,8.00
2019-02-10T18:23:43.255Z,7.93
2019-02-10T18:26:39.881Z,7.90
2019-02-10T18:29:36.637Z,7.81
2019-02-10T18:32:41.117Z,7.79
2019-02-10T18:35:33.978Z,7.61
2019-02-10T18:38:29.092Z,7.71
2019-02-10T18:41:22.474Z,7.60
2019-02-10T18:44:16.275Z,7.60
2019-02-10T18:47:18.670Z,7.47
2019-02-10T18:50:15.331Z,7.44
2019-02-10T18:53:12.047Z,7.38
2019-02-10T18:56:08.222Z,7.36
2019-02-10T18:58:57.216Z,7.21
2019-02-10T19:01:59.269Z,7.11
2019-02-10T19:04:46.721Z,7.01
2019-02-10T19:07:40.505Z,6.96
2019-02-10T19:10:32.412Z,6.93
2019-02-10T19:13:18.837Z,6.85
2019-02-10T19:16:00.481Z,6.74
2019-02-10T19:19:02.789Z,6.72
2019-02-10T19:21:56.593Z,6.72
2019-02-10T19:24:49.301Z,6.61
2019-02-10T19:27:52.282Z,6.64
2019-02-10T19:30:43.131Z,6.55
2019-02-10T19:33:44.001Z,6.52
2019-02-10T19:36:43.348Z,6.47
2019-02-10T19:39:29.518Z,6.47
2019-02-10T19:42:22.547Z,6.48
2019-02-10T19:45:27.808Z,6.36
2019-02-10T19:48:20.311Z,6.24
2019-02-10T19:51:22.447Z,6.18
2019-02-10T19:54:22.447Z,6.23
2019-02-10T19:57:35.297Z,6.13
2019-02-10T20:00:36.127Z,5.95
2019-02-10T20:03:37.135Z,5.77
2019-02-10T20:06:35.709Z,5.83
2019-02-10T20:09:30.409Z,5.81
2019-02-10T20:12:39.911Z,5.85
2019-02-10T20:15:25.150Z,5.70
2019-02-10T20:18:22.251Z,5.79
2019-02-10T20:21:25.767Z,5.78
2019-02-10T20:24:22.199Z,5.77
2019-02-10T20:27:27.481Z,5.72
2019-02-10T20:30:35.811Z,5.72
2019-02-10T20:33:25.828Z,5.64
2019-02-10T20:36:13.295Z,5.61
2019-02-10T20:39:07.152Z,5.62
2019-02-10T20:41:55.087Z,5.64
2019-02-10T20:45:01.277Z,5.42
2019-02-10T20:47:45.849Z,5.35
2019-02-10T20:50:46.726Z,5.31
2019-02-10T20:53:49.839Z,5.29
2019-02-10T20:56:54.758Z,5.27
2019-02-10T20:59:57.753Z,5.07
2019-02-10T21:03:00.412Z,5.10
2019-02-10T21:05:52.585Z,5.08
2019-02-10T21:08:49.229Z,5.03
2019-02-10T21:11:44.670Z,4.98
2019-02-10T21:14:38.725Z,4.78
2019-02-10T21:17:31.675Z,4.76
2019-02-10T21:20:21.628Z,4.75
2019-02-10T21:23:07.948Z,4.80
2019-02-10T21:26:01.863Z,4.80
2019-02-10T21:28:57.771Z,4.76
2019-02-10T21:32:11.400Z,4.74
2019-02-10T21:35:03.740Z,4.71
2019-02-10T21:37:43.479Z,4.67
2019-02-10T21:40:46.171Z,4.47
2019-02-10T21:43:41.387Z,4.45
2019-02-10T21:46:40.084Z,4.42
2019-02-10T21:49:17.250Z,4.01
2019-02-10T21:51:55.153Z,3.75
2019-02-10T21:54:28.901Z,3.83
2019-02-10T21:57:02.967Z,3.94
2019-02-10T21:59:37.055Z,3.92
2019-02-10T22:02:10.571Z,3.96
2019-02-10T22:04:43.963Z,4.10
2019-02-10T22:07:17.414Z,4.09
2019-02-10T22:09:50.633Z,4.03
2019-02-10T22:12:22.758Z,4.03
2019-02-10T22:15:09.010Z,3.88
2019-02-10T22:17:42.302Z,3.85
2019-02-10T22:20:15.778Z,3.83
2019-02-10T22:22:49.384Z,3.87
2019-02-10T22:25:22.942Z,4.02
2019-02-10T22:27:56.414Z,4.07
2019-02-10T22:30:31.521Z,4.06
2019-02-10T22:33:05.269Z,4.08
2019-02-10T22:35:38.767Z,3.96
2019-02-10T22:38:12.284Z,4.01
2019-02-10T22:40:45.771Z,3.92
2019-02-10T22:43:21.286Z,3.83
2019-02-10T22:45:56.033Z,3.84
2019-02-10T22:48:29.532Z,3.65
2019-02-10T22:51:02.974Z,3.60
2019-02-10T22:53:47.295Z,3.75
2019-02-10T22:56:31.771Z,3.80
2019-02-10T22:59:14.173Z,3.82
2019-02-10T23:01:47.544Z,3.79
2019-02-10T23:04:21.607Z,3.88
2019-02-10T23:06:55.331Z,3.95
2019-02-10T23:09:28.845Z,4.01
2019-02-10T23:12:02.477Z,4.00
2019-02-10T23:14:36.977Z,3.82
2019-02-10T23:17:10.515Z,3.83
2019-02-10T23:19:44.179Z,3.80
2019-02-10T23:22:19.056Z,3.60
2019-02-10T23:24:52.594Z,3.45
2019-02-10T23:27:27.440Z,3.60
2019-02-10T23:30:01.268Z,3.61
2019-02-10T23:32:35.014Z,3.62
2019-02-10T23:35:08.784Z,3.48
2019-02-10T23:37:42.269Z,3.58
2019-02-10T23:40:16.242Z,3.56
2019-02-10T23:42:49.909Z,3.58
2019-02-10T23:45:23.624Z,3.62
2019-02-10T23:47:57.231Z,3.61
2019-02-10T23:50:30.826Z,3.54
2019-02-10T23:53:16.783Z,3.55
2019-02-10T23:55:59.143Z,3.49
2019-02-10T23:58:32.536Z,3.45
